San Antonio, Texas
Traffic Map
Current Weather Conditions
San Antonio, Texas
Broken Clouds
Broken Clouds
77°
Feels Like: 77°
Wind Chill: 77° Ceiling: 1000
Heat Index: 77° Visibility: 10mi
Dew Point: 74° Wind: 7mph
Humidity: 90% Direction: 140° (SE)
Pressure: 30in Gusts: 0mph
Raw Report DataKSKF 291058Z AUTO 14006KT 10SM BKN010 25/23 A3000 RMK AO2 SLP150 T02480231 $
Traffic Incident Summary
Active as of:
Severity:
Category:
InformationThere was an issue retrieving the traffic information for this location. Please try a different location or try again shortly.
Advertisements
Track Severe Weather on mobile